Cazaux, France

8:40 PM CET on January 29, 2015 (GMT +0100)
Cazaux Air Base | Change Station
CLOSE
Current Station
Airport
Location: Cazaux,
Elevation: 82 ft
Nearby Weather Stations

Elev 82 ft 44.53 °N, 1.12 °W | Updated 10 minutes ago

Mostly Cloudy
Mostly Cloudy
52 °F
Feels Like 52 °F
N
24
Wind Variable Wind from WNW
Gusts 39 mph

Today
High -- | Low -- °F
--% Chance of Precip.
Yesterday
High -- | Low -- °F
Precip. -- in
8:26 AM 6:08 PM
Waxing Gibbous, 76% visible
Pressure 29.36 in
Visibility 3.7 miles
Clouds Scattered Clouds 1200 ft
Mostly Cloudy 2200 ft
Mostly Cloudy 3100 ft
Dew Point 50 °F
Humidity 94%
Rainfall 0.00 in
Snow Depth Not available.
UV 0 out of 12
Pollen Not available.
Air Quality Not available.
Flu Activity Not available.
METAR LFBC 291930Z AUTO 29021G34KT 260V320 6000 SCT012 BKN022 BKN031 11/10 Q0994

More Conditions Fewer Conditions

Pressure 29.36 in
Visibility 3.7 miles
Clouds Scattered Clouds 1200 ft
Mostly Cloudy 2200 ft
Mostly Cloudy 3100 ft
Dew Point 50 °F
Humidity 94%
Rainfall 0.00 in
Snow Depth Not available.
UV 0 out of 12
Pollen Not available.
Air Quality Not available.
Flu Activity Not available.
METAR LFBC 291930Z AUTO 29021G34KT 260V320 6000 SCT012 BKN022 BKN031 11/10 Q0994

More Conditions Fewer Conditions

10-Day Weather Forecast

Almanac

Astronomy

Jan. 29, 2015 Rise Set
Actual Time
Civil Twilight
Nautical Twilight
Astronomical Twilight
Moon
Length of Visible Light
Length of Day
Tomorrow will be .
, % of the Moon is Illuminated

Today's Extremes

Country Highs Country Lows

Community

WunderPhotos

Upload Photos

1,791,568 photos uploaded!

WunderBlogs® & News

Nearby

Air Quality

  Air Quality AQ Index Pollutant
Not available.

Snow Depth

Station Depth Elevation

Earthquake Activity

City Distance Mag. Time & Date
Minimum magnitude displayed is 2.5.

Coastal Water Temperatures

Place Temperature

Nearby Weather Stations